Terminal Aerodrome Forecast
Issued by NWS

Home | Current Version | Previous Version | Graphics & Text | Print | Product List | Glossary On
Versions: 1 2 3 4 5 6 7 8 9 10 11 12 13 14 15
822
FTUS43 KTOP 011733
TAFMHK
TAF
KMHK 011733Z 0118/0218 28006KT P6SM SCT250
     FM020000 33003KT P6SM FEW250=

USA.gov is the U.S. government's official web portal to all federal, state and local government web resources and services.